sensor_id;sensor_type;location;lat;lon;timestamp;pressure;altitude;pressure_sealevel;temperature;humidity
15568;BME280;7885;42.596;23.044;2023-07-20T00:00:07;92766.69;;;22.90;78.38
15568;BME280;7885;42.596;23.044;2023-07-20T00:02:34;92753.53;;;22.76;77.65
15568;BME280;7885;42.596;23.044;2023-07-20T00:05:00;92788.88;;;22.75;78.04
15568;BME280;7885;42.596;23.044;2023-07-20T00:07:27;92776.75;;;22.63;77.66
15568;BME280;7885;42.596;23.044;2023-07-20T00:09:54;92771.97;;;22.64;78.02
15568;BME280;7885;42.596;23.044;2023-07-20T00:12:22;92755.78;;;22.62;77.49
15568;BME280;7885;42.596;23.044;2023-07-20T00:14:48;92757.09;;;22.52;78.68
15568;BME280;7885;42.596;23.044;2023-07-20T00:17:19;92732.28;;;22.34;79.44
15568;BME280;7885;42.596;23.044;2023-07-20T00:19:45;92749.16;;;22.45;79.82
15568;BME280;7885;42.596;23.044;2023-07-20T00:22:12;92745.13;;;22.46;79.60
15568;BME280;7885;42.596;23.044;2023-07-20T00:24:39;92737.69;;;22.52;78.89
15568;BME280;7885;42.596;23.044;2023-07-20T00:27:06;92739.63;;;22.61;78.20
15568;BME280;7885;42.596;23.044;2023-07-20T00:29:34;92742.16;;;22.74;77.54
15568;BME280;7885;42.596;23.044;2023-07-20T00:32:01;92746.28;;;22.78;79.75
15568;BME280;7885;42.596;23.044;2023-07-20T00:34:30;92751.94;;;22.84;78.85
15568;BME280;7885;42.596;23.044;2023-07-20T00:36:57;92753.56;;;22.90;79.64
15568;BME280;7885;42.596;23.044;2023-07-20T00:39:23;92743.91;;;22.86;80.08
15568;BME280;7885;42.596;23.044;2023-07-20T00:41:50;92738.75;;;22.93;78.91
15568;BME280;7885;42.596;23.044;2023-07-20T00:44:17;92745.38;;;22.96;78.77
15568;BME280;7885;42.596;23.044;2023-07-20T00:46:45;92738.38;;;23.00;78.17
15568;BME280;7885;42.596;23.044;2023-07-20T00:49:12;92730.53;;;22.99;78.04
15568;BME280;7885;42.596;23.044;2023-07-20T00:51:38;92685.53;;;22.80;78.23
15568;BME280;7885;42.596;23.044;2023-07-20T00:54:05;92723.66;;;23.09;77.76
15568;BME280;7885;42.596;23.044;2023-07-20T00:56:33;92714.91;;;22.87;78.18
15568;BME280;7885;42.596;23.044;2023-07-20T00:59:00;92692.34;;;22.55;77.18
15568;BME280;7885;42.596;23.044;2023-07-20T01:01:27;92728.56;;;22.76;76.93
15568;BME280;7885;42.596;23.044;2023-07-20T01:03:55;92716.53;;;22.79;77.20
15568;BME280;7885;42.596;23.044;2023-07-20T01:06:28;92717.84;;;22.69;81.09
15568;BME280;7885;42.596;23.044;2023-07-20T01:09:04;92703.94;;;22.54;81.76
15568;BME280;7885;42.596;23.044;2023-07-20T01:11:38;92720.47;;;22.48;82.98
15568;BME280;7885;42.596;23.044;2023-07-20T01:14:05;92740.59;;;22.58;82.59
15568;BME280;7885;42.596;23.044;2023-07-20T01:16:33;92697.34;;;22.28;82.37
15568;BME280;7885;42.596;23.044;2023-07-20T01:19:01;92703.75;;;22.19;81.92
15568;BME280;7885;42.596;23.044;2023-07-20T01:21:32;92719.53;;;22.28;81.28
15568;BME280;7885;42.596;23.044;2023-07-20T01:33:05;92734.56;;;21.55;85.14
15568;BME280;7885;42.596;23.044;2023-07-20T01:35:34;92738.59;;;21.45;85.87
15568;BME280;7885;42.596;23.044;2023-07-20T01:38:03;92713.06;;;21.41;85.50
15568;BME280;7885;42.596;23.044;2023-07-20T01:40:31;92729.19;;;21.52;85.27
15568;BME280;7885;42.596;23.044;2023-07-20T01:42:57;92721.97;;;21.54;85.66
15568;BME280;7885;42.596;23.044;2023-07-20T01:45:24;92684.56;;;21.26;85.64
15568;BME280;7885;42.596;23.044;2023-07-20T01:47:52;92711.22;;;21.47;86.01
15568;BME280;7885;42.596;23.044;2023-07-20T01:50:20;92734.22;;;21.62;85.09
15568;BME280;7885;42.596;23.044;2023-07-20T01:52:47;92729.88;;;21.71;83.51
15568;BME280;7885;42.596;23.044;2023-07-20T01:55:13;92721.16;;;21.63;83.08
15568;BME280;7885;42.596;23.044;2023-07-20T01:57:40;92725.63;;;21.60;83.55
15568;BME280;7885;42.596;23.044;2023-07-20T02:00:08;92720.69;;;21.64;83.55
15568;BME280;7885;42.596;23.044;2023-07-20T02:02:35;92716.00;;;21.47;84.45
15568;BME280;7885;42.596;23.044;2023-07-20T02:05:02;92710.53;;;21.29;85.16
15568;BME280;7885;42.596;23.044;2023-07-20T02:07:30;92714.69;;;21.24;85.01
15568;BME280;7885;42.596;23.044;2023-07-20T02:09:56;92714.72;;;21.15;85.52
15568;BME280;7885;42.596;23.044;2023-07-20T02:12:23;92706.75;;;20.90;86.46
15568;BME280;7885;42.596;23.044;2023-07-20T02:14:50;92690.09;;;20.57;87.81
15568;BME280;7885;42.596;23.044;2023-07-20T02:17:17;92718.19;;;20.64;88.51
15568;BME280;7885;42.596;23.044;2023-07-20T02:19:43;92721.25;;;20.66;89.19
15568;BME280;7885;42.596;23.044;2023-07-20T02:22:10;92703.44;;;20.58;88.98
15568;BME280;7885;42.596;23.044;2023-07-20T02:24:38;92716.78;;;20.69;88.58
15568;BME280;7885;42.596;23.044;2023-07-20T02:27:05;92709.88;;;20.74;88.24
15568;BME280;7885;42.596;23.044;2023-07-20T02:29:32;92712.06;;;20.60;89.27
15568;BME280;7885;42.596;23.044;2023-07-20T02:31:59;92706.22;;;20.49;90.54
15568;BME280;7885;42.596;23.044;2023-07-20T02:34:26;92709.47;;;20.48;91.22
15568;BME280;7885;42.596;23.044;2023-07-20T02:36:52;92708.69;;;20.47;91.15
15568;BME280;7885;42.596;23.044;2023-07-20T02:39:21;92703.47;;;20.49;90.93
15568;BME280;7885;42.596;23.044;2023-07-20T02:41:49;92701.91;;;20.57;90.77
15568;BME280;7885;42.596;23.044;2023-07-20T02:44:16;92694.84;;;20.56;90.43
15568;BME280;7885;42.596;23.044;2023-07-20T02:46:43;92698.53;;;20.62;87.90
15568;BME280;7885;42.596;23.044;2023-07-20T02:49:09;92678.25;;;20.56;89.23
15568;BME280;7885;42.596;23.044;2023-07-20T02:51:36;92688.53;;;20.56;89.72
15568;BME280;7885;42.596;23.044;2023-07-20T02:54:03;92642.63;;;20.22;89.22
15568;BME280;7885;42.596;23.044;2023-07-20T02:56:30;92690.56;;;20.46;89.52
15568;BME280;7885;42.596;23.044;2023-07-20T02:58:58;92696.56;;;20.54;89.79
15568;BME280;7885;42.596;23.044;2023-07-20T03:01:24;92700.38;;;20.56;88.76
15568;BME280;7885;42.596;23.044;2023-07-20T03:03:54;92702.06;;;20.54;89.15
15568;BME280;7885;42.596;23.044;2023-07-20T03:06:21;92696.69;;;20.59;91.24
15568;BME280;7885;42.596;23.044;2023-07-20T03:08:48;92694.25;;;20.61;90.54
15568;BME280;7885;42.596;23.044;2023-07-20T03:11:18;92701.91;;;20.57;89.55
15568;BME280;7885;42.596;23.044;2023-07-20T03:13:45;92693.00;;;20.62;89.67
15568;BME280;7885;42.596;23.044;2023-07-20T03:16:18;92703.75;;;20.51;89.21
15568;BME280;7885;42.596;23.044;2023-07-20T03:18:45;92705.00;;;20.50;90.07
15568;BME280;7885;42.596;23.044;2023-07-20T03:21:12;92689.94;;;20.42;90.10
15568;BME280;7885;42.596;23.044;2023-07-20T03:23:39;92704.22;;;20.59;89.63
15568;BME280;7885;42.596;23.044;2023-07-20T03:26:06;92717.28;;;20.67;89.46
15568;BME280;7885;42.596;23.044;2023-07-20T03:28:34;92700.06;;;20.63;90.39
15568;BME280;7885;42.596;23.044;2023-07-20T03:31:00;92696.69;;;20.69;91.31
15568;BME280;7885;42.596;23.044;2023-07-20T03:33:31;92713.53;;;20.80;91.38
15568;BME280;7885;42.596;23.044;2023-07-20T03:35:58;92706.75;;;20.90;91.29
15568;BME280;7885;42.596;23.044;2023-07-20T03:38:25;92705.09;;;20.92;91.16
15568;BME280;7885;42.596;23.044;2023-07-20T03:40:53;92699.97;;;21.00;91.10
15568;BME280;7885;42.596;23.044;2023-07-20T03:43:21;92699.97;;;21.00;90.56
15568;BME280;7885;42.596;23.044;2023-07-20T03:45:48;92716.72;;;20.96;90.75
15568;BME280;7885;42.596;23.044;2023-07-20T03:51:38;92720.16;;;20.91;90.75
15568;BME280;7885;42.596;23.044;2023-07-20T03:54:05;92710.78;;;20.89;90.66
15568;BME280;7885;42.596;23.044;2023-07-20T03:56:33;92713.84;;;20.91;90.69
15568;BME280;7885;42.596;23.044;2023-07-20T03:59:00;92716.47;;;20.85;91.25
15568;BME280;7885;42.596;23.044;2023-07-20T04:01:27;92723.34;;;20.90;91.60
15568;BME280;7885;42.596;23.044;2023-07-20T04:03:54;92707.69;;;20.87;91.17
15568;BME280;7885;42.596;23.044;2023-07-20T04:06:21;92712.91;;;20.94;91.72
15568;BME280;7885;42.596;23.044;2023-07-20T04:08:49;92714.63;;;20.91;92.03
15568;BME280;7885;42.596;23.044;2023-07-20T04:11:16;92714.44;;;20.95;92.35
15568;BME280;7885;42.596;23.044;2023-07-20T04:13:42;92706.75;;;20.99;93.23
15568;BME280;7885;42.596;23.044;2023-07-20T04:16:09;92698.75;;;21.10;91.78
15568;BME280;7885;42.596;23.044;2023-07-20T04:18:36;92694.28;;;21.12;91.82
15568;BME280;7885;42.596;23.044;2023-07-20T04:21:03;92689.22;;;21.11;92.28
15568;BME280;7885;42.596;23.044;2023-07-20T04:23:29;92693.97;;;21.20;92.41
15568;BME280;7885;42.596;23.044;2023-07-20T04:25:57;92689.31;;;21.26;91.94
15568;BME280;7885;42.596;23.044;2023-07-20T04:28:24;92691.28;;;21.34;92.72
15568;BME280;7885;42.596;23.044;2023-07-20T04:30:52;92687.25;;;21.44;92.58
15568;BME280;7885;42.596;23.044;2023-07-20T04:33:19;92686.09;;;21.60;93.05
15568;BME280;7885;42.596;23.044;2023-07-20T04:35:48;92677.88;;;21.65;92.22
15568;BME280;7885;42.596;23.044;2023-07-20T04:38:15;92676.59;;;21.76;91.05
15568;BME280;7885;42.596;23.044;2023-07-20T04:40:43;92679.00;;;21.92;90.01
15568;BME280;7885;42.596;23.044;2023-07-20T04:46:33;92693.03;;;22.12;88.00
15568;BME280;7885;42.596;23.044;2023-07-20T04:49:00;92693.44;;;22.20;86.83
15568;BME280;7885;42.596;23.044;2023-07-20T04:51:27;92700.81;;;22.23;85.95
15568;BME280;7885;42.596;23.044;2023-07-20T04:53:55;92690.69;;;22.34;85.14
15568;BME280;7885;42.596;23.044;2023-07-20T04:56:22;92683.63;;;22.33;84.19
15568;BME280;7885;42.596;23.044;2023-07-20T04:58:49;92684.84;;;22.32;84.34
15568;BME280;7885;42.596;23.044;2023-07-20T05:01:16;92693.09;;;22.41;84.05
15568;BME280;7885;42.596;23.044;2023-07-20T05:03:44;92687.00;;;22.52;84.34
15568;BME280;7885;42.596;23.044;2023-07-20T05:06:11;92681.84;;;22.59;84.89
15568;BME280;7885;42.596;23.044;2023-07-20T05:08:37;92691.94;;;22.72;85.16
15568;BME280;7885;42.596;23.044;2023-07-20T05:11:05;92689.34;;;22.83;84.65
15568;BME280;7885;42.596;23.044;2023-07-20T05:13:32;92681.22;;;22.94;85.15
15568;BME280;7885;42.596;23.044;2023-07-20T05:15:59;92686.69;;;23.03;84.87
15568;BME280;7885;42.596;23.044;2023-07-20T05:18:26;92655.00;;;22.95;84.51
15568;BME280;7885;42.596;23.044;2023-07-20T05:20:54;92677.28;;;23.15;83.76
15568;BME280;7885;42.596;23.044;2023-07-20T05:23:21;92697.00;;;23.32;82.90
15568;BME280;7885;42.596;23.044;2023-07-20T05:25:54;92702.78;;;23.43;81.70
15568;BME280;7885;42.596;23.044;2023-07-20T05:28:20;92713.75;;;23.52;80.75
15568;BME280;7885;42.596;23.044;2023-07-20T05:30:47;92720.66;;;23.56;81.31
15568;BME280;7885;42.596;23.044;2023-07-20T05:33:14;92718.53;;;23.66;80.21
15568;BME280;7885;42.596;23.044;2023-07-20T05:35:41;92726.28;;;23.77;79.81
15568;BME280;7885;42.596;23.044;2023-07-20T05:38:09;92714.72;;;23.63;77.37
15568;BME280;7885;42.596;23.044;2023-07-20T05:40:37;92716.91;;;23.59;77.84
15568;BME280;7885;42.596;23.044;2023-07-20T05:43:04;92727.81;;;23.78;78.80
15568;BME280;7885;42.596;23.044;2023-07-20T05:45:30;92701.25;;;23.77;78.43
15568;BME280;7885;42.596;23.044;2023-07-20T05:47:57;92713.16;;;23.97;78.43
15568;BME280;7885;42.596;23.044;2023-07-20T05:50:24;92713.94;;;24.12;78.34
15568;BME280;7885;42.596;23.044;2023-07-20T05:52:52;92695.50;;;24.15;77.65
15568;BME280;7885;42.596;23.044;2023-07-20T05:55:20;92709.03;;;24.28;76.00
15568;BME280;7885;42.596;23.044;2023-07-20T05:57:47;92707.19;;;24.19;75.65
15568;BME280;7885;42.596;23.044;2023-07-20T06:00:15;92694.53;;;24.18;76.72
15568;BME280;7885;42.596;23.044;2023-07-20T06:02:44;92702.31;;;24.34;77.42
15568;BME280;7885;42.596;23.044;2023-07-20T06:05:13;92687.72;;;24.39;77.35
15568;BME280;7885;42.596;23.044;2023-07-20T06:07:39;92678.88;;;24.41;76.62
15568;BME280;7885;42.596;23.044;2023-07-20T06:10:07;92699.94;;;24.68;75.64
15568;BME280;7885;42.596;23.044;2023-07-20T06:12:35;92706.16;;;24.83;75.83
15568;BME280;7885;42.596;23.044;2023-07-20T06:15:02;92711.38;;;24.95;76.06
15568;BME280;7885;42.596;23.044;2023-07-20T06:17:30;92710.50;;;25.09;75.58
15568;BME280;7885;42.596;23.044;2023-07-20T06:19:57;92709.09;;;25.20;74.83
15568;BME280;7885;42.596;23.044;2023-07-20T06:22:23;92692.94;;;25.24;74.06
15568;BME280;7885;42.596;23.044;2023-07-20T06:24:50;92696.38;;;25.44;74.11
15568;BME280;7885;42.596;23.044;2023-07-20T06:27:17;92700.03;;;25.56;72.45
15568;BME280;7885;42.596;23.044;2023-07-20T06:29:45;92703.47;;;25.71;71.78
15568;BME280;7885;42.596;23.044;2023-07-20T06:32:12;92700.53;;;25.86;72.52
15568;BME280;7885;42.596;23.044;2023-07-20T06:34:39;92690.22;;;26.03;69.74
15568;BME280;7885;42.596;23.044;2023-07-20T06:37:05;92701.06;;;26.32;70.03
15568;BME280;7885;42.596;23.044;2023-07-20T06:39:32;92674.97;;;26.41;69.35
15568;BME280;7885;42.596;23.044;2023-07-20T06:58:49;92720.22;;;27.71;60.28
15568;BME280;7885;42.596;23.044;2023-07-20T07:01:15;92729.38;;;27.77;61.41
15568;BME280;7885;42.596;23.044;2023-07-20T07:03:42;92737.75;;;27.88;60.08
15568;BME280;7885;42.596;23.044;2023-07-20T07:06:09;92746.16;;;27.88;58.89
15568;BME280;7885;42.596;23.044;2023-07-20T07:08:36;92763.19;;;28.06;60.15
15568;BME280;7885;42.596;23.044;2023-07-20T07:11:02;92757.09;;;28.14;60.74
15568;BME280;7885;42.596;23.044;2023-07-20T07:13:29;92767.03;;;28.20;65.92
15568;BME280;7885;42.596;23.044;2023-07-20T07:15:57;92770.31;;;28.02;65.75
15568;BME280;7885;42.596;23.044;2023-07-20T07:18:24;92769.03;;;28.03;66.86
15568;BME280;7885;42.596;23.044;2023-07-20T07:20:52;92773.59;;;27.89;68.20
15568;BME280;7885;42.596;23.044;2023-07-20T07:26:40;92772.09;;;27.94;67.25
15568;BME280;7885;42.596;23.044;2023-07-20T07:29:07;92758.63;;;27.81;65.78
15568;BME280;7885;42.596;23.044;2023-07-20T07:31:35;92763.69;;;27.94;66.95
15568;BME280;7885;42.596;23.044;2023-07-20T07:34:02;92753.75;;;28.04;67.46
15568;BME280;7885;42.596;23.044;2023-07-20T07:36:29;92745.63;;;28.06;66.83
15568;BME280;7885;42.596;23.044;2023-07-20T07:38:56;92733.97;;;28.13;64.74
15568;BME280;7885;42.596;23.044;2023-07-20T07:41:22;92698.09;;;27.95;65.71
15568;BME280;7885;42.596;23.044;2023-07-20T07:43:49;92724.03;;;28.23;66.59
15568;BME280;7885;42.596;23.044;2023-07-20T07:46:16;92726.75;;;28.45;65.98
15568;BME280;7885;42.596;23.044;2023-07-20T07:48:44;92735.88;;;28.51;61.03
15568;BME280;7885;42.596;23.044;2023-07-20T07:51:11;92732.59;;;28.53;59.13
15568;BME280;7885;42.596;23.044;2023-07-20T07:53:38;92726.94;;;28.70;62.18
15568;BME280;7885;42.596;23.044;2023-07-20T07:56:06;92725.91;;;28.78;66.04
15568;BME280;7885;42.596;23.044;2023-07-20T07:58:33;92731.47;;;28.84;65.22
15568;BME280;7885;42.596;23.044;2023-07-20T08:01:00;92754.91;;;28.81;63.32
15568;BME280;7885;42.596;23.044;2023-07-20T08:03:27;92768.09;;;28.97;64.66
15568;BME280;7885;42.596;23.044;2023-07-20T08:05:55;92775.47;;;29.00;62.98
15568;BME280;7885;42.596;23.044;2023-07-20T08:08:22;92775.00;;;28.96;59.91
15568;BME280;7885;42.596;23.044;2023-07-20T08:10:52;92777.00;;;29.01;61.12
15568;BME280;7885;42.596;23.044;2023-07-20T08:13:19;92773.19;;;28.93;60.08
15568;BME280;7885;42.596;23.044;2023-07-20T08:15:49;92762.88;;;28.54;61.35
15568;BME280;7885;42.596;23.044;2023-07-20T08:18:16;92761.81;;;28.69;63.91
15568;BME280;7885;42.596;23.044;2023-07-20T08:20:44;92749.13;;;28.56;63.05
15568;BME280;7885;42.596;23.044;2023-07-20T08:23:12;92750.09;;;28.76;63.96
15568;BME280;7885;42.596;23.044;2023-07-20T08:25:38;92769.97;;;28.78;64.37
15568;BME280;7885;42.596;23.044;2023-07-20T08:28:09;92761.78;;;28.80;63.02
15568;BME280;7885;42.596;23.044;2023-07-20T08:30:40;92775.56;;;28.78;63.27
15568;BME280;7885;42.596;23.044;2023-07-20T08:33:07;92783.94;;;28.83;63.54
15568;BME280;7885;42.596;23.044;2023-07-20T08:35:34;92790.53;;;28.86;63.99
15568;BME280;7885;42.596;23.044;2023-07-20T08:38:01;92780.88;;;28.92;61.59
15568;BME280;7885;42.596;23.044;2023-07-20T08:40:31;92778.88;;;28.82;56.83
15568;BME280;7885;42.596;23.044;2023-07-20T08:42:58;92788.56;;;28.70;57.48
15568;BME280;7885;42.596;23.044;2023-07-20T08:45:26;92751.19;;;28.39;54.95
15568;BME280;7885;42.596;23.044;2023-07-20T08:47:55;92774.03;;;28.66;54.97
15568;BME280;7885;42.596;23.044;2023-07-20T08:50:22;92765.91;;;28.68;56.85
15568;BME280;7885;42.596;23.044;2023-07-20T08:52:52;92766.38;;;28.83;53.73
15568;BME280;7885;42.596;23.044;2023-07-20T08:55:19;92760.03;;;28.77;52.85
15568;BME280;7885;42.596;23.044;2023-07-20T08:57:50;92759.25;;;28.82;54.42
15568;BME280;7885;42.596;23.044;2023-07-20T09:00:19;92755.41;;;28.85;54.25
15568;BME280;7885;42.596;23.044;2023-07-20T09:02:49;92753.53;;;29.04;54.39
15568;BME280;7885;42.596;23.044;2023-07-20T09:05:16;92752.75;;;29.09;54.33
15568;BME280;7885;42.596;23.044;2023-07-20T09:07:43;92763.59;;;29.40;53.85
15568;BME280;7885;42.596;23.044;2023-07-20T09:10:10;92756.53;;;29.64;53.18
15568;BME280;7885;42.596;23.044;2023-07-20T09:12:38;92744.38;;;29.91;54.35
15568;BME280;7885;42.596;23.044;2023-07-20T09:15:07;92744.19;;;30.13;53.80
15568;BME280;7885;42.596;23.044;2023-07-20T09:17:34;92756.53;;;30.29;52.31
15568;BME280;7885;42.596;23.044;2023-07-20T09:20:02;92746.06;;;30.29;50.77
15568;BME280;7885;42.596;23.044;2023-07-20T09:22:33;92750.63;;;30.32;51.40
15568;BME280;7885;42.596;23.044;2023-07-20T09:25:00;92750.06;;;30.39;51.96
15568;BME280;7885;42.596;23.044;2023-07-20T09:27:34;92751.47;;;30.51;50.52
15568;BME280;7885;42.596;23.044;2023-07-20T09:30:03;92741.19;;;30.60;51.08
15568;BME280;7885;42.596;23.044;2023-07-20T09:32:31;92752.47;;;30.78;49.54
15568;BME280;7885;42.596;23.044;2023-07-20T09:35:05;92759.09;;;30.81;50.32
15568;BME280;7885;42.596;23.044;2023-07-20T09:37:33;92761.47;;;30.95;48.75
15568;BME280;7885;42.596;23.044;2023-07-20T09:39:59;92752.78;;;30.99;47.85
15568;BME280;7885;42.596;23.044;2023-07-20T09:42:26;92756.81;;;31.22;45.70
15568;BME280;7885;42.596;23.044;2023-07-20T09:44:53;92744.81;;;31.40;44.57
15568;BME280;7885;42.596;23.044;2023-07-20T09:47:23;92723.38;;;31.75;45.07
15568;BME280;7885;42.596;23.044;2023-07-20T09:49:57;92728.47;;;32.08;45.25
15568;BME280;7885;42.596;23.044;2023-07-20T09:52:25;92714.59;;;32.10;42.59
15568;BME280;7885;42.596;23.044;2023-07-20T09:54:52;92725.22;;;32.17;43.22
15568;BME280;7885;42.596;23.044;2023-07-20T09:57:21;92721.56;;;32.22;42.96
15568;BME280;7885;42.596;23.044;2023-07-20T09:59:48;92730.50;;;32.39;42.99
15568;BME280;7885;42.596;23.044;2023-07-20T10:02:20;92732.28;;;32.82;43.35
15568;BME280;7885;42.596;23.044;2023-07-20T10:04:49;92730.22;;;33.22;43.28
15568;BME280;7885;42.596;23.044;2023-07-20T10:07:22;92740.69;;;33.47;43.40
15568;BME280;7885;42.596;23.044;2023-07-20T10:09:51;92743.03;;;33.70;42.75
15568;BME280;7885;42.596;23.044;2023-07-20T10:12:22;92744.25;;;33.95;41.13
15568;BME280;7885;42.596;23.044;2023-07-20T10:14:54;92753.06;;;33.91;40.72
15568;BME280;7885;42.596;23.044;2023-07-20T10:17:25;92753.16;;;33.86;39.51
15568;BME280;7885;42.596;23.044;2023-07-20T10:19:56;92709.91;;;33.70;39.06
15568;BME280;7885;42.596;23.044;2023-07-20T10:22:27;92733.75;;;34.03;39.72
15568;BME280;7885;42.596;23.044;2023-07-20T10:24:58;92733.25;;;34.25;38.81
15568;BME280;7885;42.596;23.044;2023-07-20T10:27:26;92724.78;;;34.25;39.72
15568;BME280;7885;42.596;23.044;2023-07-20T10:29:53;92689.66;;;34.00;38.08
15568;BME280;7885;42.596;23.044;2023-07-20T10:32:22;92712.63;;;34.17;37.40
15568;BME280;7885;42.596;23.044;2023-07-20T10:34:50;92688.78;;;33.84;37.37
15568;BME280;7885;42.596;23.044;2023-07-20T10:37:47;92697.38;;;33.45;39.03
15568;BME280;7885;42.596;23.044;2023-07-20T10:40:25;92690.09;;;33.02;41.52
15568;BME280;7885;42.596;23.044;2023-07-20T10:42:57;92699.94;;;32.30;40.46
15568;BME280;7885;42.596;23.044;2023-07-20T10:45:33;92700.34;;;32.21;41.05
15568;BME280;7885;42.596;23.044;2023-07-20T10:48:03;92687.78;;;32.48;41.37
15568;BME280;7885;42.596;23.044;2023-07-20T10:50:30;92663.72;;;32.34;42.43
15568;BME280;7885;42.596;23.044;2023-07-20T10:53:12;92651.75;;;32.02;42.71
15568;BME280;7885;42.596;23.044;2023-07-20T10:55:39;92653.75;;;31.43;45.59
15568;BME280;7885;42.596;23.044;2023-07-20T10:58:08;92648.44;;;31.21;44.59
15568;BME280;7885;42.596;23.044;2023-07-20T11:00:35;92654.31;;;31.23;45.42
15568;BME280;7885;42.596;23.044;2023-07-20T11:03:02;92664.38;;;31.32;45.78
15568;BME280;7885;42.596;23.044;2023-07-20T11:05:37;92652.88;;;31.48;46.91
15568;BME280;7885;42.596;23.044;2023-07-20T11:08:05;92634.50;;;31.79;49.01
15568;BME280;7885;42.596;23.044;2023-07-20T11:10:34;92653.34;;;32.29;46.38
15568;BME280;7885;42.596;23.044;2023-07-20T11:13:21;92647.63;;;32.74;45.08
15568;BME280;7885;42.596;23.044;2023-07-20T11:16:02;92641.66;;;32.78;43.44
15568;BME280;7885;42.596;23.044;2023-07-20T11:18:30;92647.34;;;33.12;42.38
15568;BME280;7885;42.596;23.044;2023-07-20T11:20:57;92658.63;;;33.45;41.22
15568;BME280;7885;42.596;23.044;2023-07-20T11:23:24;92640.69;;;33.56;41.15
15568;BME280;7885;42.596;23.044;2023-07-20T11:25:52;92623.34;;;33.73;40.47
15568;BME280;7885;42.596;23.044;2023-07-20T11:28:19;92658.13;;;34.09;40.11
15568;BME280;7885;42.596;23.044;2023-07-20T11:30:51;92645.47;;;34.23;39.00
15568;BME280;7885;42.596;23.044;2023-07-20T11:33:18;92642.84;;;34.05;38.25
15568;BME280;7885;42.596;23.044;2023-07-20T11:35:45;92624.53;;;33.98;39.90
15568;BME280;7885;42.596;23.044;2023-07-20T11:38:13;92639.31;;;34.12;38.15
15568;BME280;7885;42.596;23.044;2023-07-20T11:40:42;92633.59;;;34.04;39.99
15568;BME280;7885;42.596;23.044;2023-07-20T11:43:12;92620.75;;;33.95;39.61
15568;BME280;7885;42.596;23.044;2023-07-20T11:45:39;92626.84;;;34.07;41.11
15568;BME280;7885;42.596;23.044;2023-07-20T11:48:06;92625.56;;;33.87;39.68
15568;BME280;7885;42.596;23.044;2023-07-20T11:50:38;92609.88;;;33.79;38.93
15568;BME280;7885;42.596;23.044;2023-07-20T11:53:06;92617.94;;;33.75;40.02
15568;BME280;7885;42.596;23.044;2023-07-20T11:55:33;92616.56;;;33.55;40.50
15568;BME280;7885;42.596;23.044;2023-07-20T11:58:04;92606.72;;;33.48;40.23
15568;BME280;7885;42.596;23.044;2023-07-20T12:00:32;92605.44;;;33.49;39.98
15568;BME280;7885;42.596;23.044;2023-07-20T12:02:59;92603.03;;;33.53;42.97
15568;BME280;7885;42.596;23.044;2023-07-20T12:05:26;92598.91;;;33.55;42.41
15568;BME280;7885;42.596;23.044;2023-07-20T12:07:54;92606.16;;;33.63;40.07
15568;BME280;7885;42.596;23.044;2023-07-20T12:10:25;92591.31;;;33.49;40.37
15568;BME280;7885;42.596;23.044;2023-07-20T12:12:54;92592.91;;;33.58;41.84
15568;BME280;7885;42.596;23.044;2023-07-20T12:15:22;92589.63;;;33.67;41.99
15568;BME280;7885;42.596;23.044;2023-07-20T12:17:55;92594.31;;;33.85;42.33
15568;BME280;7885;42.596;23.044;2023-07-20T12:20:26;92596.34;;;34.06;42.04
15568;BME280;7885;42.596;23.044;2023-07-20T12:22:56;92575.66;;;34.11;41.91
15568;BME280;7885;42.596;23.044;2023-07-20T12:25:23;92590.31;;;34.30;39.96
15568;BME280;7885;42.596;23.044;2023-07-20T12:27:50;92592.38;;;34.29;39.75
15568;BME280;7885;42.596;23.044;2023-07-20T12:30:16;92590.66;;;34.26;39.19
15568;BME280;7885;42.596;23.044;2023-07-20T12:32:43;92586.38;;;34.33;38.33
15568;BME280;7885;42.596;23.044;2023-07-20T12:35:11;92581.91;;;34.37;37.48
15568;BME280;7885;42.596;23.044;2023-07-20T12:37:39;92577.78;;;34.46;37.89
15568;BME280;7885;42.596;23.044;2023-07-20T12:40:08;92579.19;;;34.60;38.14
15568;BME280;7885;42.596;23.044;2023-07-20T12:42:36;92575.59;;;34.60;35.82
15568;BME280;7885;42.596;23.044;2023-07-20T12:45:04;92576.63;;;34.41;36.20
15568;BME280;7885;42.596;23.044;2023-07-20T12:47:31;92583.78;;;34.42;37.60
15568;BME280;7885;42.596;23.044;2023-07-20T12:49:58;92581.91;;;34.37;37.04
15568;BME280;7885;42.596;23.044;2023-07-20T12:52:26;92568.66;;;34.32;35.65
15568;BME280;7885;42.596;23.044;2023-07-20T12:54:52;92561.88;;;34.07;35.00
15568;BME280;7885;42.596;23.044;2023-07-20T12:57:19;92559.84;;;33.87;35.62
15568;BME280;7885;42.596;23.044;2023-07-20T12:59:46;92566.09;;;33.93;34.57
15568;BME280;7885;42.596;23.044;2023-07-20T13:02:13;92565.16;;;33.90;35.42
15568;BME280;7885;42.596;23.044;2023-07-20T13:04:39;92537.47;;;33.89;35.96
15568;BME280;7885;42.596;23.044;2023-07-20T13:07:09;92559.94;;;33.74;35.14
15568;BME280;7885;42.596;23.044;2023-07-20T13:09:38;92538.31;;;33.56;35.90
15568;BME280;7885;42.596;23.044;2023-07-20T13:12:06;92560.22;;;33.63;36.37
15568;BME280;7885;42.596;23.044;2023-07-20T13:14:33;92562.00;;;33.52;37.03
15568;BME280;7885;42.596;23.044;2023-07-20T13:16:59;92556.09;;;33.64;36.60
15568;BME280;7885;42.596;23.044;2023-07-20T13:19:26;92563.19;;;33.78;36.64
15568;BME280;7885;42.596;23.044;2023-07-20T13:21:53;92555.84;;;33.82;35.06
15568;BME280;7885;42.596;23.044;2023-07-20T13:24:20;92553.31;;;33.92;35.99
15568;BME280;7885;42.596;23.044;2023-07-20T13:26:48;92566.81;;;33.86;37.13
15568;BME280;7885;42.596;23.044;2023-07-20T13:29:14;92553.19;;;33.77;36.89
15568;BME280;7885;42.596;23.044;2023-07-20T13:31:42;92551.97;;;33.65;36.07
15568;BME280;7885;42.596;23.044;2023-07-20T13:34:09;92555.59;;;33.52;35.72
15568;BME280;7885;42.596;23.044;2023-07-20T13:36:35;92545.06;;;33.73;37.25
15568;BME280;7885;42.596;23.044;2023-07-20T13:39:02;92556.63;;;33.83;35.33